Terminal Aerodrome Forecast
Issued by NWS Cleveland, OH

Home | Current Version | Previous Version | Graphics & Text | Print | Product List | Glossary On
Versions: 1 2 3 4 5 6 7 8 9 10 11 12 13 14 15 16
364
FTUS41 KCLE 291235 AAA
TAFERI
TAF AMD
KERI 291235Z 2913/3012 02006KT P6SM OVC005
      TEMPO 2913/2916 1SM BR
     FM291600 02005KT P6SM VCSH OVC010
     FM292200 03007KT P6SM OVC025
     FM300200 06012G21KT P6SM OVC035=

USA.gov is the U.S. government's official web portal to all federal, state and local government web resources and services.